createdAt,value
2022-07-29T00:02:13.684Z,11.25
2022-07-29T00:04:44.000Z,6.20
2022-07-29T00:07:14.325Z,4.53
2022-07-29T00:09:51.984Z,6.55
2022-07-29T00:12:26.387Z,10.23
2022-07-29T00:14:58.551Z,6.53
2022-07-29T00:17:31.333Z,8.95
2022-07-29T00:20:01.488Z,9.07
2022-07-29T00:22:31.747Z,9.38
2022-07-29T00:25:01.920Z,6.32
2022-07-29T00:27:32.100Z,7.70
2022-07-29T00:30:02.248Z,8.90
2022-07-29T00:32:35.152Z,9.40
2022-07-29T00:35:17.729Z,10.50
2022-07-29T00:37:48.226Z,7.82
2022-07-29T00:40:18.391Z,8.00
2022-07-29T00:42:56.736Z,9.18
2022-07-29T00:45:26.972Z,9.02
2022-07-29T00:47:59.887Z,12.93
2022-07-29T00:50:30.687Z,8.35
2022-07-29T00:55:31.372Z,10.90
2022-07-29T01:00:33.570Z,10.88
2022-07-29T01:03:06.647Z,11.98
2022-07-29T01:05:48.056Z,12.55
2022-07-29T01:08:21.358Z,14.73
2022-07-29T01:10:53.329Z,12.52
2022-07-29T01:13:25.270Z,10.90
2022-07-29T01:16:02.533Z,13.25
2022-07-29T01:18:42.204Z,15.32
2022-07-29T01:21:31.833Z,11.40
2022-07-29T01:24:23.796Z,13.52
2022-07-29T01:27:01.581Z,11.27
2022-07-29T01:30:24.693Z,17.70
2022-07-29T01:33:00.496Z,13.30
2022-07-29T01:35:39.306Z,14.60
2022-07-29T01:38:16.558Z,16.48
2022-07-29T01:40:52.502Z,14.43
2022-07-29T01:43:29.788Z,14.52
2022-07-29T01:46:09.497Z,15.13
2022-07-29T01:48:46.261Z,13.93
2022-07-29T01:51:23.423Z,14.90
2022-07-29T01:54:03.546Z,10.88
2022-07-29T01:56:36.377Z,16.15
2022-07-29T01:59:09.383Z,12.93
2022-07-29T02:01:47.054Z,14.80
2022-07-29T02:04:29.169Z,11.13
2022-07-29T02:07:06.685Z,11.45
2022-07-29T02:09:39.918Z,12.38
2022-07-29T02:12:12.187Z,13.32
2022-07-29T02:14:47.587Z,16.75
2022-07-29T02:17:27.787Z,14.45
2022-07-29T02:20:03.315Z,12.30
2022-07-29T02:22:37.987Z,12.52
2022-07-29T02:25:14.167Z,11.27
2022-07-29T02:27:46.871Z,12.27
2022-07-29T02:30:17.716Z,12.90
2022-07-29T02:32:52.551Z,19.52
2022-07-29T02:35:24.056Z,12.90
2022-07-29T02:38:08.428Z,15.77
2022-07-29T02:40:42.185Z,16.33
2022-07-29T02:43:14.612Z,11.93
2022-07-29T02:45:45.589Z,13.18
2022-07-29T02:48:22.413Z,11.75
2022-07-29T02:51:01.838Z,13.10
2022-07-29T02:53:37.388Z,11.40
2022-07-29T02:56:13.122Z,15.70
2022-07-29T02:58:49.240Z,11.82
2022-07-29T03:01:22.810Z,10.27
2022-07-29T03:03:58.160Z,12.55
2022-07-29T03:06:38.438Z,10.00
2022-07-29T03:11:49.334Z,13.23
2022-07-29T03:14:24.046Z,11.50
2022-07-29T03:16:55.393Z,12.15
2022-07-29T03:19:28.700Z,10.57
2022-07-29T03:22:00.905Z,11.85
2022-07-29T03:24:37.101Z,11.50
2022-07-29T03:27:08.625Z,10.57
2022-07-29T03:29:38.837Z,11.90
2022-07-29T03:32:10.919Z,10.30
2022-07-29T03:34:43.740Z,13.60
2022-07-29T03:37:13.976Z,12.00
2022-07-29T03:39:47.260Z,9.50
2022-07-29T03:42:20.440Z,10.85
2022-07-29T03:44:52.979Z,8.93
2022-07-29T03:47:49.820Z,6.18
2022-07-29T03:50:22.015Z,11.45
2022-07-29T03:52:53.220Z,8.60
2022-07-29T03:55:23.987Z,9.85
2022-07-29T03:57:54.677Z,14.50
2022-07-29T04:05:28.477Z,10.27
2022-07-29T04:07:58.799Z,12.48
2022-07-29T04:10:31.866Z,7.68
2022-07-29T04:13:03.824Z,13.35
2022-07-29T04:15:34.201Z,8.27
2022-07-29T04:18:04.583Z,12.48
2022-07-29T04:20:37.600Z,18.55
2022-07-29T04:23:07.983Z,11.15
2022-07-29T04:25:42.327Z,10.52
2022-07-29T04:28:13.742Z,9.70
2022-07-29T04:30:44.635Z,10.90
2022-07-29T04:33:15.110Z,16.25
2022-07-29T04:35:50.436Z,15.48
2022-07-29T04:38:23.259Z,12.07
2022-07-29T04:43:24.752Z,34.00
2022-07-29T04:45:55.221Z,54.88
2022-07-29T04:48:28.702Z,44.00
2022-07-29T04:51:01.932Z,22.52
2022-07-29T04:53:32.240Z,28.40
2022-07-29T04:56:02.473Z,19.38
2022-07-29T04:58:32.655Z,12.32
2022-07-29T05:01:02.841Z,14.23
2022-07-29T05:03:33.121Z,12.27
2022-07-29T05:06:05.989Z,18.55
2022-07-29T05:08:36.205Z,13.23
2022-07-29T05:11:11.535Z,16.23
2022-07-29T05:13:46.154Z,16.70
2022-07-29T05:16:17.618Z,13.57
2022-07-29T05:18:47.880Z,15.68
2022-07-29T05:21:21.029Z,11.13
2022-07-29T05:23:51.427Z,12.45
2022-07-29T05:26:21.782Z,11.98
2022-07-29T05:28:52.194Z,11.60
2022-07-29T05:31:22.407Z,12.63
2022-07-29T05:33:52.590Z,11.35
2022-07-29T05:36:25.337Z,12.05
2022-07-29T05:38:55.843Z,7.18
2022-07-29T05:43:56.078Z,6.87
2022-07-29T05:46:26.334Z,6.35
2022-07-29T05:48:57.437Z,5.35
2022-07-29T05:51:30.970Z,8.82
2022-07-29T05:54:01.171Z,5.88
2022-07-29T05:56:31.571Z,7.15
2022-07-29T05:59:02.194Z,8.40
2022-07-29T06:01:32.641Z,8.05
2022-07-29T06:04:03.130Z,7.03
2022-07-29T06:06:35.949Z,5.35
2022-07-29T06:09:12.470Z,6.18
2022-07-29T06:11:43.656Z,9.07
2022-07-29T06:14:14.208Z,4.68
2022-07-29T06:16:45.420Z,6.72
2022-07-29T06:19:15.730Z,7.88
2022-07-29T06:21:50.310Z,9.80
2022-07-29T06:24:20.810Z,9.32
2022-07-29T06:26:51.149Z,23.08
2022-07-29T06:29:21.326Z,9.75
2022-07-29T06:31:51.534Z,10.55
2022-07-29T06:34:21.743Z,7.25
2022-07-29T06:36:55.224Z,6.97
2022-07-29T06:39:26.668Z,7.13
2022-07-29T06:41:56.910Z,7.90
2022-07-29T06:44:28.650Z,7.13
2022-07-29T06:46:58.838Z,11.45
2022-07-29T06:49:29.028Z,7.32
2022-07-29T06:52:01.884Z,5.45
2022-07-29T06:54:32.697Z,6.15
2022-07-29T06:57:03.006Z,10.15
2022-07-29T06:59:35.787Z,5.70
2022-07-29T07:02:06.417Z,7.72
2022-07-29T07:04:36.762Z,7.47
2022-07-29T07:07:09.713Z,8.25
2022-07-29T07:09:40.854Z,9.18
2022-07-29T07:12:11.997Z,10.60
2022-07-29T07:14:43.649Z,7.25
2022-07-29T07:17:13.874Z,10.57
2022-07-29T07:19:44.127Z,7.85
2022-07-29T07:22:17.080Z,8.30
2022-07-29T07:24:47.241Z,7.80
2022-07-29T07:27:17.432Z,9.05
2022-07-29T07:29:48.055Z,8.55
2022-07-29T07:32:18.488Z,5.28
2022-07-29T07:37:21.687Z,8.40
2022-07-29T07:39:51.856Z,5.22
2022-07-29T07:42:22.106Z,5.45
2022-07-29T07:45:12.517Z,7.50
2022-07-29T07:47:43.265Z,7.72
2022-07-29T07:50:19.002Z,9.18
2022-07-29T07:52:58.856Z,7.32
2022-07-29T07:55:53.581Z,5.33
2022-07-29T07:58:20.733Z,7.57
2022-07-29T08:00:51.009Z,7.10
2022-07-29T08:05:52.143Z,7.57
2022-07-29T08:08:24.927Z,8.25
2022-07-29T08:10:57.946Z,6.22
2022-07-29T08:13:31.606Z,6.30
2022-07-29T08:16:03.017Z,9.07
2022-07-29T08:18:35.266Z,13.45
2022-07-29T08:21:05.499Z,5.43
2022-07-29T08:23:46.115Z,5.88
2022-07-29T08:26:19.632Z,5.60
2022-07-29T08:28:51.931Z,9.65
2022-07-29T08:31:22.156Z,4.75
2022-07-29T08:36:22.334Z,10.00
2022-07-29T08:41:25.640Z,9.15
2022-07-29T08:43:56.264Z,8.35
2022-07-29T08:46:27.008Z,5.50
2022-07-29T08:48:57.392Z,11.93
2022-07-29T08:51:31.580Z,7.85
2022-07-29T08:54:05.364Z,5.82
2022-07-29T08:56:36.123Z,8.65
2022-07-29T08:59:08.843Z,9.88
2022-07-29T09:01:45.258Z,7.25
2022-07-29T09:04:17.151Z,5.45
2022-07-29T09:06:51.667Z,7.40
2022-07-29T09:09:24.537Z,5.75
2022-07-29T09:11:55.469Z,6.53
2022-07-29T09:14:25.841Z,5.55
2022-07-29T09:16:58.635Z,4.82
2022-07-29T09:19:35.355Z,6.22
2022-07-29T09:22:08.223Z,7.85
2022-07-29T09:24:47.107Z,5.90
2022-07-29T09:27:27.562Z,3.97
2022-07-29T09:30:02.810Z,3.85
2022-07-29T09:32:34.230Z,7.63
2022-07-29T09:35:21.718Z,5.70
2022-07-29T09:37:52.478Z,8.70
2022-07-29T09:40:29.363Z,10.85
2022-07-29T09:43:00.070Z,5.78
2022-07-29T09:45:33.355Z,11.18
2022-07-29T09:48:04.641Z,6.28
2022-07-29T09:50:43.222Z,5.57
2022-07-29T09:53:14.128Z,5.00
2022-07-29T09:55:54.016Z,7.30
2022-07-29T09:58:25.922Z,4.47
2022-07-29T10:01:00.675Z,8.73
2022-07-29T10:03:31.047Z,6.38
2022-07-29T10:06:14.651Z,5.85
2022-07-29T10:08:45.994Z,7.63
2022-07-29T10:11:21.270Z,6.70
2022-07-29T10:13:52.613Z,3.55
2022-07-29T10:16:22.825Z,6.07
2022-07-29T10:18:53.366Z,7.10
2022-07-29T10:21:35.773Z,6.43
2022-07-29T10:24:14.823Z,5.75
2022-07-29T10:26:49.142Z,6.53
2022-07-29T10:29:19.375Z,6.80
2022-07-29T10:32:04.016Z,4.95
2022-07-29T10:34:56.989Z,8.10
2022-07-29T10:37:35.439Z,4.50
2022-07-29T10:40:34.004Z,5.00
2022-07-29T10:43:22.264Z,6.85
2022-07-29T10:45:59.873Z,3.28
2022-07-29T10:48:30.789Z,4.30
2022-07-29T10:51:04.165Z,5.65
2022-07-29T10:53:54.178Z,5.47
2022-07-29T10:56:33.497Z,4.90
2022-07-29T10:59:36.315Z,7.20
2022-07-29T11:05:40.093Z,4.10
2022-07-29T11:08:28.393Z,6.10
2022-07-29T11:11:37.882Z,4.35
2022-07-29T11:14:10.473Z,4.25
2022-07-29T11:17:10.370Z,4.13
2022-07-29T11:19:50.987Z,5.35
2022-07-29T11:22:37.157Z,4.60
2022-07-29T11:28:23.108Z,5.25
2022-07-29T11:30:58.384Z,4.88
2022-07-29T11:33:56.403Z,4.40
2022-07-29T11:36:28.314Z,4.80
2022-07-29T11:39:37.059Z,5.63
2022-07-29T11:42:44.403Z,4.20
2022-07-29T11:45:44.187Z,4.30
2022-07-29T11:48:28.482Z,5.93
2022-07-29T11:51:03.600Z,4.80
2022-07-29T11:53:38.101Z,4.78
2022-07-29T11:56:12.264Z,3.33
2022-07-29T11:58:47.201Z,5.23
2022-07-29T12:01:17.995Z,7.93
2022-07-29T12:03:48.381Z,8.00
2022-07-29T12:06:21.276Z,5.85
2022-07-29T12:08:51.619Z,5.30
2022-07-29T12:11:23.814Z,4.47
2022-07-29T12:13:54.864Z,5.25
2022-07-29T12:16:29.409Z,7.45
2022-07-29T12:19:04.789Z,6.10
2022-07-29T12:21:53.685Z,6.32
2022-07-29T12:24:27.662Z,3.65
2022-07-29T12:27:00.801Z,9.40
2022-07-29T12:29:35.476Z,6.40
2022-07-29T12:32:14.209Z,4.65
2022-07-29T12:34:45.593Z,4.45
2022-07-29T12:37:18.704Z,10.13
2022-07-29T12:39:49.006Z,7.85
2022-07-29T12:42:20.117Z,6.80
2022-07-29T12:44:55.096Z,6.40
2022-07-29T12:47:25.511Z,5.28
2022-07-29T12:50:13.505Z,5.40
2022-07-29T12:52:46.330Z,5.50
2022-07-29T12:55:16.602Z,5.38
2022-07-29T12:57:51.770Z,5.88
2022-07-29T13:00:27.587Z,6.10
2022-07-29T13:03:00.416Z,4.88
2022-07-29T13:05:49.178Z,6.43
2022-07-29T13:08:23.317Z,5.22
2022-07-29T13:10:53.681Z,4.45
2022-07-29T13:13:29.742Z,5.82
2022-07-29T13:16:11.695Z,5.95
2022-07-29T13:18:42.412Z,10.48
2022-07-29T13:21:19.072Z,4.10
2022-07-29T13:23:51.995Z,5.25
2022-07-29T13:26:22.285Z,5.53
2022-07-29T13:28:52.544Z,4.13
2022-07-29T13:31:23.142Z,6.88
2022-07-29T13:33:53.381Z,11.60
2022-07-29T13:36:24.795Z,8.35
2022-07-29T13:38:57.650Z,7.13
2022-07-29T13:41:28.300Z,6.07
2022-07-29T13:43:58.875Z,6.05
2022-07-29T13:46:29.101Z,5.07
2022-07-29T13:48:59.377Z,6.65
2022-07-29T13:51:29.575Z,6.60
2022-07-29T13:54:02.459Z,13.45
2022-07-29T13:56:32.882Z,15.63
2022-07-29T13:59:03.140Z,17.00
2022-07-29T14:01:34.149Z,5.10
2022-07-29T14:04:04.369Z,10.05
2022-07-29T14:06:34.528Z,7.43
2022-07-29T14:09:09.699Z,6.88
2022-07-29T14:11:40.825Z,5.53
2022-07-29T14:14:11.687Z,3.60
2022-07-29T14:16:47.616Z,8.55
2022-07-29T14:19:20.693Z,5.05
2022-07-29T14:21:51.218Z,5.15
2022-07-29T14:24:24.330Z,9.20
2022-07-29T14:26:56.294Z,6.80
2022-07-29T14:29:37.582Z,5.97
2022-07-29T14:32:10.108Z,7.60
2022-07-29T14:34:41.208Z,4.50
2022-07-29T14:37:15.813Z,5.28
2022-07-29T14:39:49.028Z,9.02
2022-07-29T14:42:19.241Z,5.10
2022-07-29T14:44:50.397Z,4.13
2022-07-29T14:47:20.668Z,7.78
2022-07-29T14:49:50.792Z,7.32
2022-07-29T14:54:53.565Z,5.05
2022-07-29T14:57:23.915Z,5.75
2022-07-29T14:59:55.026Z,5.47
2022-07-29T15:02:39.991Z,8.75
2022-07-29T15:07:45.691Z,5.15
2022-07-29T15:10:18.564Z,8.30
2022-07-29T15:12:49.121Z,11.43
2022-07-29T15:17:49.236Z,11.83
2022-07-29T15:20:19.864Z,6.28
2022-07-29T15:22:50.076Z,8.75
2022-07-29T15:25:23.002Z,7.78
2022-07-29T15:27:54.799Z,6.80
2022-07-29T15:30:33.565Z,6.88
2022-07-29T15:33:05.714Z,6.90
2022-07-29T15:35:40.026Z,24.92
2022-07-29T15:38:11.160Z,7.32
2022-07-29T15:43:15.645Z,5.70
2022-07-29T15:46:09.147Z,7.70
2022-07-29T15:48:43.030Z,6.90
2022-07-29T15:51:13.360Z,5.88
2022-07-29T15:57:10.887Z,6.30
2022-07-29T15:59:41.340Z,5.43
2022-07-29T16:04:41.567Z,5.78
2022-07-29T16:07:11.728Z,6.35
2022-07-29T16:09:41.925Z,8.68
2022-07-29T16:12:15.630Z,6.32
2022-07-29T16:14:46.160Z,5.93
2022-07-29T16:17:16.500Z,6.78
2022-07-29T16:19:46.908Z,6.20
2022-07-29T16:24:47.109Z,5.72
2022-07-29T16:27:24.846Z,4.57
2022-07-29T16:29:55.766Z,5.55
2022-07-29T16:32:25.975Z,5.28
2022-07-29T16:34:56.164Z,5.00
2022-07-29T16:37:28.834Z,6.63
2022-07-29T16:39:59.136Z,5.38
2022-07-29T16:42:45.938Z,7.20
2022-07-29T16:45:17.994Z,5.43
2022-07-29T16:47:51.604Z,8.07
2022-07-29T16:50:22.978Z,7.30
2022-07-29T16:55:23.660Z,5.88
2022-07-29T16:57:56.577Z,5.63
2022-07-29T17:00:26.980Z,6.75
2022-07-29T17:05:27.382Z,5.13
2022-07-29T17:07:58.573Z,6.13
2022-07-29T17:10:30.379Z,5.25
2022-07-29T17:13:03.249Z,6.88
2022-07-29T17:15:36.383Z,5.05
2022-07-29T17:18:12.347Z,4.82
2022-07-29T17:20:45.648Z,4.90
2022-07-29T17:23:15.954Z,4.30
2022-07-29T17:25:46.155Z,5.82
2022-07-29T17:28:18.963Z,5.38
2022-07-29T17:30:49.166Z,4.75
2022-07-29T17:33:19.334Z,5.32
2022-07-29T17:36:01.968Z,5.25
2022-07-29T17:38:32.137Z,4.53
2022-07-29T17:41:02.398Z,7.15
2022-07-29T17:43:40.556Z,5.70
2022-07-29T17:46:11.546Z,6.30
2022-07-29T17:48:41.802Z,5.15
2022-07-29T17:51:12.140Z,5.03
2022-07-29T17:56:12.213Z,4.70
2022-07-29T17:58:47.450Z,8.77
2022-07-29T18:01:18.041Z,8.18
2022-07-29T18:03:48.359Z,4.47
2022-07-29T18:06:18.645Z,50.03
2022-07-29T18:08:49.106Z,17.35
2022-07-29T18:13:52.280Z,8.70
2022-07-29T18:19:44.443Z,14.00
2022-07-29T18:22:15.224Z,7.78
2022-07-29T18:24:45.492Z,7.22
2022-07-29T18:27:15.661Z,9.68
2022-07-29T18:29:51.161Z,5.00
2022-07-29T18:32:28.726Z,6.00
2022-07-29T18:35:02.726Z,7.50
2022-07-29T18:38:00.851Z,10.55
2022-07-29T18:40:25.838Z,13.38
2022-07-29T18:42:56.200Z,6.07
2022-07-29T18:47:59.582Z,5.93
2022-07-29T18:53:03.402Z,4.85
2022-07-29T18:55:33.657Z,6.60
2022-07-29T18:58:03.898Z,6.60
2022-07-29T19:00:36.689Z,6.35
2022-07-29T19:03:07.174Z,5.70
2022-07-29T19:05:37.702Z,7.15
2022-07-29T19:10:38.303Z,5.65
2022-07-29T19:13:08.703Z,7.40
2022-07-29T19:18:13.326Z,5.60
2022-07-29T19:20:43.782Z,5.78
2022-07-29T19:25:53.933Z,5.73
2022-07-29T19:28:24.487Z,4.70
2022-07-29T19:30:57.295Z,5.20
2022-07-29T19:33:27.502Z,6.88
2022-07-29T19:36:05.548Z,6.45
2022-07-29T19:38:40.683Z,8.85
2022-07-29T19:41:11.012Z,7.07
2022-07-29T19:43:50.965Z,6.88
2022-07-29T19:46:30.791Z,6.32
2022-07-29T19:49:01.446Z,6.18
2022-07-29T19:51:31.808Z,11.98
2022-07-29T19:56:32.186Z,12.37
2022-07-29T19:59:02.874Z,7.63
2022-07-29T20:01:40.285Z,8.98
2022-07-29T20:04:10.553Z,7.35
2022-07-29T20:06:41.017Z,8.75
2022-07-29T20:11:50.735Z,8.60
2022-07-29T20:14:21.107Z,8.85
2022-07-29T20:16:54.530Z,9.65
2022-07-29T20:19:24.844Z,8.43
2022-07-29T20:21:55.057Z,7.05
2022-07-29T20:24:25.555Z,8.30
2022-07-29T20:29:25.950Z,7.93
2022-07-29T20:34:28.876Z,8.25
2022-07-29T20:37:00.441Z,8.77
2022-07-29T20:39:31.223Z,7.80
2022-07-29T20:44:31.293Z,6.60
2022-07-29T20:47:04.215Z,11.25
2022-07-29T20:49:36.334Z,7.03
2022-07-29T20:52:06.742Z,8.50
2022-07-29T20:54:37.054Z,8.25
2022-07-29T20:57:07.628Z,8.73
2022-07-29T20:59:38.607Z,11.05
2022-07-29T21:02:13.770Z,7.65
2022-07-29T21:04:44.122Z,8.90
2022-07-29T21:07:14.319Z,11.52
2022-07-29T21:09:44.627Z,11.32
2022-07-29T21:12:14.836Z,11.43
2022-07-29T21:14:51.901Z,12.32
2022-07-29T21:17:24.785Z,10.50
2022-07-29T21:19:55.492Z,11.18
2022-07-29T21:22:25.761Z,10.70
2022-07-29T21:24:55.921Z,10.30
2022-07-29T21:27:38.657Z,9.75
2022-07-29T21:30:11.692Z,8.00
2022-07-29T21:32:44.708Z,8.10
2022-07-29T21:35:31.391Z,8.85
2022-07-29T21:38:05.248Z,10.10
2022-07-29T21:40:35.608Z,12.57
2022-07-29T21:43:06.144Z,7.25
2022-07-29T21:48:10.403Z,8.80
2022-07-29T21:50:40.722Z,8.25
2022-07-29T21:53:11.127Z,10.98
2022-07-29T21:55:44.730Z,6.90
2022-07-29T21:58:15.558Z,8.90
2022-07-29T22:00:46.865Z,8.02
2022-07-29T22:03:20.264Z,7.68
2022-07-29T22:05:50.454Z,8.40
2022-07-29T22:08:23.466Z,7.47
2022-07-29T22:10:53.717Z,8.32
2022-07-29T22:13:23.946Z,7.03
2022-07-29T22:15:54.091Z,7.72
2022-07-29T22:18:26.930Z,6.55
2022-07-29T22:20:57.150Z,8.27
2022-07-29T22:23:27.327Z,7.45
2022-07-29T22:25:57.545Z,8.35
2022-07-29T22:28:27.851Z,6.32
2022-07-29T22:30:58.351Z,8.07
2022-07-29T22:36:01.771Z,6.80
2022-07-29T22:38:31.946Z,7.55
2022-07-29T22:41:03.366Z,7.28
2022-07-29T22:43:33.735Z,8.20
2022-07-29T22:46:04.179Z,7.25
2022-07-29T22:48:37.166Z,6.97
2022-07-29T22:51:07.959Z,7.18
2022-07-29T22:53:39.273Z,7.88
2022-07-29T22:56:09.500Z,8.52
2022-07-29T22:58:39.695Z,9.85
2022-07-29T23:01:10.339Z,8.52
2022-07-29T23:03:51.101Z,8.95
2022-07-29T23:06:22.084Z,6.65
2022-07-29T23:08:52.364Z,7.35
2022-07-29T23:11:22.526Z,7.78
2022-07-29T23:13:52.729Z,7.90
2022-07-29T23:16:26.631Z,8.20
2022-07-29T23:18:59.914Z,7.72
2022-07-29T23:21:30.168Z,6.70
2022-07-29T23:24:00.289Z,7.15
2022-07-29T23:26:31.884Z,5.85
2022-07-29T23:29:02.165Z,8.13
2022-07-29T23:31:32.347Z,6.05
2022-07-29T23:34:05.112Z,6.43
2022-07-29T23:36:35.480Z,7.25
2022-07-29T23:39:06.175Z,7.18
2022-07-29T23:41:36.411Z,8.77
2022-07-29T23:44:07.333Z,9.43
2022-07-29T23:46:37.631Z,6.40
2022-07-29T23:49:10.587Z,5.85
2022-07-29T23:51:40.914Z,7.05
2022-07-29T23:54:11.226Z,6.47
2022-07-29T23:56:41.533Z,5.95
2022-07-29T23:59:11.765Z,6.47
